Time,TemperatureF,DewpointF,PressureIn,WindDirection,WindDirectionDegrees,WindSpeedMPH,WindSpeedGustMPH,Humidity,HourlyPrecipIn,Conditions,Clouds,dailyrainin,SolarRadiationWatts/m^2,SoftwareType,DateUTC
2013-01-24 00:02:00,35.0,16.0,-100.00,ENE,71,5.0,6.0,45,-99.99,,,-99.99,0.030000,,2013-01-24 07:02:00,
2013-01-24 00:22:00,35.0,16.0,-100.00,NE,52,4.0,5.0,46,-99.99,,,-99.99,0.030000,,2013-01-24 07:22:00,
2013-01-24 04:52:00,38.0,20.0,-100.00,ENE,61,4.0,6.0,46,-99.99,,,-99.99,0.000000,,2013-01-24 11:52:00,
2013-01-24 05:12:00,38.0,18.0,-100.00,NE,45,6.0,7.0,43,-99.99,,,-99.99,0.000000,,2013-01-24 12:12:00,
2013-01-24 05:22:00,38.0,18.0,-100.00,NE,45,6.0,7.0,43,-99.99,,,-99.99,0.000000,,2013-01-24 12:22:00,
2013-01-24 05:32:00,40.0,21.0,-100.00,SW,234,4.0,7.0,47,-99.99,,,-99.99,0.000000,,2013-01-24 12:32:00,
2013-01-24 06:02:00,38.0,23.0,-100.00,SW,233,6.0,9.0,52,-99.99,,,-99.99,0.000000,,2013-01-24 13:02:00,
2013-01-24 06:32:00,37.0,21.0,-100.00,WSW,241,7.0,11.0,52,-99.99,,,-99.99,0.000000,,2013-01-24 13:32:00,
2013-01-24 07:02:00,36.0,26.0,-100.00,WSW,238,8.0,10.0,66,-99.99,,,-99.99,0.000000,,2013-01-24 14:02:00,
2013-01-24 07:12:00,36.0,26.0,-100.00,WSW,238,8.0,10.0,66,-99.99,,,-99.99,0.000000,,2013-01-24 14:12:00,
2013-01-24 07:33:00,34.0,23.0,-100.00,SW,221,6.0,9.0,64,-99.99,,,-99.99,0.000000,,2013-01-24 14:33:00,
2013-01-24 07:42:00,32.0,23.0,-100.00,SW,235,5.0,7.0,67,-99.99,,,-99.99,0.010000,,2013-01-24 14:42:00,
2013-01-24 07:53:00,32.0,24.0,-100.00,SW,221,5.0,6.0,72,-99.99,,,-99.99,0.110000,,2013-01-24 14:53:00,
2013-01-24 08:02:00,32.0,24.0,-100.00,SW,221,5.0,6.0,72,-99.99,,,-99.99,0.110000,,2013-01-24 15:02:00,
2013-01-24 08:22:00,32.0,26.0,-100.00,SSW,211,3.0,4.0,79,-99.99,,,-99.99,1.030000,,2013-01-24 15:22:00,
2013-01-24 08:32:00,31.0,26.0,-100.00,SW,222,3.0,4.0,81,-99.99,,,-99.99,2.880000,,2013-01-24 15:32:00,
2013-01-24 08:42:00,31.0,27.0,-100.00,SW,218,0.0,2.0,83,-99.99,,,-99.99,14.370000,,2013-01-24 15:42:00,
2013-01-24 08:52:00,32.0,27.0,-100.00,ENE,72,5.0,5.0,84,-99.99,,,-99.99,20.959999,,2013-01-24 15:52:00,
2013-01-24 09:02:00,32.0,28.0,-100.00,ENE,74,4.0,5.0,87,-99.99,,,-99.99,33.000000,,2013-01-24 16:02:00,
2013-01-24 09:33:00,32.0,29.0,-100.00,ENE,65,4.0,4.0,89,-99.99,,,-99.99,56.160000,,2013-01-24 16:33:00,
2013-01-24 10:01:00,33.0,30.0,-100.00,NE,53,1.0,3.0,90,-99.99,,,-99.99,65.949997,,2013-01-24 17:01:00,
2013-01-24 10:11:00,33.0,31.0,-100.00,North,0,0.0,2.0,90,-99.99,,,-99.99,70.150002,,2013-01-24 17:11:00,
2013-01-24 10:21:00,33.0,31.0,-100.00,North,0,0.0,2.0,90,-99.99,,,-99.99,70.150002,,2013-01-24 17:21:00,
2013-01-24 10:42:00,33.0,31.0,-100.00,SW,221,2.0,3.0,90,-99.99,,,-99.99,70.250000,,2013-01-24 17:42:00,
2013-01-24 10:51:00,34.0,31.0,-100.00,South,172,0.0,2.0,91,-99.99,,,-99.99,102.099998,,2013-01-24 17:51:00,
2013-01-24 11:01:00,33.0,31.0,-100.00,ENE,76,5.0,5.0,91,-99.99,,,-99.99,115.699997,,2013-01-24 18:01:00,
2013-01-24 11:32:00,33.0,31.0,-100.00,ENE,61,4.0,5.0,92,-99.99,,,-99.99,103.500000,,2013-01-24 18:32:00,
2013-01-24 11:42:00,33.0,31.0,-100.00,ENE,61,4.0,5.0,92,-99.99,,,-99.99,103.500000,,2013-01-24 18:42:00,
2013-01-24 11:52:00,33.0,31.0,-100.00,ENE,78,3.0,5.0,92,-99.99,,,-99.99,104.199997,,2013-01-24 18:52:00,
2013-01-24 12:12:00,33.0,31.0,-100.00,SW,215,1.0,2.0,92,-99.99,,,-99.99,74.639999,,2013-01-24 19:12:00,
2013-01-24 12:21:00,33.0,31.0,-100.00,SW,215,1.0,2.0,92,-99.99,,,-99.99,74.639999,,2013-01-24 19:21:00,
2013-01-24 12:32:00,33.0,31.0,-100.00,East,84,1.0,2.0,91,-99.99,,,-99.99,77.940002,,2013-01-24 19:32:00,
2013-01-24 12:42:00,34.0,32.0,-100.00,ENE,60,0.0,3.0,92,-99.99,,,-99.99,98.900002,,2013-01-24 19:42:00,
2013-01-24 12:51:00,34.0,32.0,-100.00,ENE,60,0.0,3.0,92,-99.99,,,-99.99,98.900002,,2013-01-24 19:51:00,
2013-01-24 13:01:00,34.0,32.0,-100.00,ENE,60,0.0,3.0,92,-99.99,,,-99.99,98.900002,,2013-01-24 20:01:00,
2013-01-24 13:11:00,35.0,32.0,-100.00,West,260,3.0,5.0,91,-99.99,,,-99.99,128.399994,,2013-01-24 20:11:00,
2013-01-24 13:21:00,35.0,32.0,-100.00,West,260,3.0,5.0,91,-99.99,,,-99.99,128.399994,,2013-01-24 20:21:00,
2013-01-24 13:32:00,35.0,33.0,-100.00,SSW,210,3.0,5.0,91,-99.99,,,-99.99,151.500000,,2013-01-24 20:32:00,
2013-01-24 13:42:00,35.0,33.0,-100.00,SSW,210,3.0,5.0,91,-99.99,,,-99.99,151.500000,,2013-01-24 20:42:00,
2013-01-24 13:52:00,35.0,33.0,-100.00,SSW,205,3.0,5.0,91,-99.99,,,-99.99,137.699997,,2013-01-24 20:52:00,
2013-01-24 14:02:00,35.0,32.0,-100.00,WSW,253,4.0,5.0,91,-99.99,,,-99.99,139.800003,,2013-01-24 21:02:00,
2013-01-24 14:11:00,35.0,32.0,-100.00,SW,222,4.0,7.0,91,-99.99,,,-99.99,112.099998,,2013-01-24 21:11:00,
2013-01-24 14:32:00,35.0,33.0,-100.00,NW,320,2.0,5.0,90,-99.99,,,-99.99,113.900002,,2013-01-24 21:32:00,
2013-01-24 14:42:00,35.0,32.0,-100.00,ESE,123,1.0,3.0,90,-99.99,,,-99.99,69.730003,,2013-01-24 21:42:00,
2013-01-24 14:52:00,35.0,32.0,-100.00,ESE,123,1.0,3.0,90,-99.99,,,-99.99,69.730003,,2013-01-24 21:52:00,
2013-01-24 15:21:00,35.0,32.0,-100.00,ENE,65,3.0,3.0,89,-99.99,,,-99.99,76.820000,,2013-01-24 22:21:00,
2013-01-24 15:41:00,34.0,32.0,-100.00,South,185,4.0,5.0,89,-99.99,,,-99.99,42.900002,,2013-01-24 22:41:00,
2013-01-24 15:52:00,34.0,32.0,-100.00,South,185,4.0,5.0,89,-99.99,,,-99.99,42.900002,,2013-01-24 22:52:00,
2013-01-24 16:02:00,33.0,31.0,-100.00,SSW,213,5.0,7.0,90,-99.99,,,-99.99,52.860001,,2013-01-24 23:02:00,
2013-01-24 16:11:00,33.0,31.0,-100.00,SW,215,5.0,5.0,91,-99.99,,,-99.99,58.720001,,2013-01-24 23:11:00,
2013-01-24 16:21:00,33.0,31.0,-100.00,SW,215,5.0,5.0,91,-99.99,,,-99.99,58.720001,,2013-01-24 23:21:00,
2013-01-24 16:32:00,33.0,31.0,-100.00,SW,225,4.0,5.0,92,-99.99,,,-99.99,37.279999,,2013-01-24 23:32:00,
2013-01-24 16:42:00,33.0,31.0,-100.00,SW,220,6.0,7.0,92,-99.99,,,-99.99,35.439999,,2013-01-24 23:42:00,
2013-01-24 16:52:00,33.0,31.0,-100.00,SW,219,8.0,8.0,93,-99.99,,,-99.99,20.770000,,2013-01-24 23:52:00,
2013-01-24 17:01:00,33.0,31.0,-100.00,SW,226,5.0,9.0,93,-99.99,,,-99.99,17.120001,,2013-01-25 00:01:00,
2013-01-24 17:21:00,33.0,31.0,-100.00,SSW,206,3.0,6.0,93,-99.99,,,-99.99,15.440000,,2013-01-25 00:21:00,
2013-01-24 17:32:00,32.0,31.0,-100.00,SW,227,6.0,7.0,93,-99.99,,,-99.99,14.990000,,2013-01-25 00:32:00,
2013-01-24 17:51:00,32.0,31.0,-100.00,SW,228,5.0,7.0,94,-99.99,,,-99.99,4.020000,,2013-01-25 00:51:00,
2013-01-24 18:11:00,32.0,31.0,-100.00,SSW,211,6.0,6.0,94,-99.99,,,-99.99,0.530000,,2013-01-25 01:11:00,
2013-01-24 18:21:00,32.0,31.0,-100.00,SSW,211,6.0,6.0,94,-99.99,,,-99.99,0.530000,,2013-01-25 01:21:00,
2013-01-24 18:31:00,32.0,31.0,-100.00,SW,219,5.0,6.0,94,-99.99,,,-99.99,0.010000,,2013-01-25 01:31:00,
2013-01-24 18:41:00,32.0,31.0,-100.00,SW,216,5.0,7.0,94,-99.99,,,-99.99,0.000000,,2013-01-25 01:41:00,
2013-01-24 19:01:00,32.0,31.0,-100.00,SW,230,5.0,7.0,94,-99.99,,,-99.99,0.010000,,2013-01-25 02:01:00,
2013-01-24 19:11:00,32.0,31.0,-100.00,WSW,241,3.0,4.0,94,-99.99,,,-99.99,0.070000,,2013-01-25 02:11:00,
2013-01-24 19:21:00,32.0,31.0,-100.00,SW,233,3.0,4.0,94,-99.99,,,-99.99,0.070000,,2013-01-25 02:21:00,
2013-01-24 19:31:00,32.0,31.0,-100.00,SSW,192,2.0,3.0,94,-99.99,,,-99.99,0.070000,,2013-01-25 02:31:00,
2013-01-24 19:42:00,32.0,31.0,-100.00,West,272,2.0,3.0,94,-99.99,,,-99.99,0.010000,,2013-01-25 02:42:00,
2013-01-24 19:52:00,32.0,31.0,-100.00,SW,216,2.0,3.0,94,-99.99,,,-99.99,0.000000,,2013-01-25 02:52:00,
2013-01-24 20:01:00,33.0,32.0,-100.00,WNW,282,2.0,3.0,94,-99.99,,,-99.99,0.010000,,2013-01-25 03:01:00,
2013-01-24 20:12:00,33.0,31.0,-100.00,SSW,205,2.0,3.0,94,-99.99,,,-99.99,0.000000,,2013-01-25 03:12:00,
2013-01-24 21:11:00,33.0,31.0,-100.00,WSW,254,2.0,3.0,94,-99.99,,,-99.99,0.000000,,2013-01-25 04:11:00,
2013-01-24 21:22:00,33.0,31.0,-100.00,WSW,254,2.0,3.0,94,-99.99,,,-99.99,0.000000,,2013-01-25 04:22:00,
2013-01-24 21:41:00,32.0,31.0,-100.00,WSW,238,2.0,3.0,94,-99.99,,,-99.99,0.000000,,2013-01-25 04:41:00,
2013-01-24 22:03:00,33.0,32.0,-100.00,West,280,2.0,4.0,94,-99.99,,,-99.99,0.000000,,2013-01-25 05:03:00,